sensor_id;sensor_type;location;lat;lon;timestamp;temperature;humidity
4002;DHT22;2015;48.670;9.060;2023-08-08T00:02:27;11.30;99.90
4002;DHT22;2015;48.670;9.060;2023-08-08T00:04:59;11.30;99.90
4002;DHT22;2015;48.670;9.060;2023-08-08T00:07:30;11.40;99.90
4002;DHT22;2015;48.670;9.060;2023-08-08T00:10:02;11.40;99.90
4002;DHT22;2015;48.670;9.060;2023-08-08T00:12:35;11.50;99.90
4002;DHT22;2015;48.670;9.060;2023-08-08T00:15:07;11.60;99.90
4002;DHT22;2015;48.670;9.060;2023-08-08T00:17:39;11.70;99.90
4002;DHT22;2015;48.670;9.060;2023-08-08T00:20:11;11.80;99.90
4002;DHT22;2015;48.670;9.060;2023-08-08T00:22:42;11.90;99.90
4002;DHT22;2015;48.670;9.060;2023-08-08T00:25:14;12.00;99.90
4002;DHT22;2015;48.670;9.060;2023-08-08T00:27:46;12.00;99.90
4002;DHT22;2015;48.670;9.060;2023-08-08T00:30:17;12.00;99.90
4002;DHT22;2015;48.670;9.060;2023-08-08T00:32:49;12.00;99.90
4002;DHT22;2015;48.670;9.060;2023-08-08T00:35:21;12.00;99.90
4002;DHT22;2015;48.670;9.060;2023-08-08T00:37:53;12.00;99.90
4002;DHT22;2015;48.670;9.060;2023-08-08T00:40:25;12.00;99.90
4002;DHT22;2015;48.670;9.060;2023-08-08T00:42:56;12.00;99.90
4002;DHT22;2015;48.670;9.060;2023-08-08T00:45:28;12.00;99.90
4002;DHT22;2015;48.670;9.060;2023-08-08T00:48:00;12.00;99.90
4002;DHT22;2015;48.670;9.060;2023-08-08T00:50:32;12.00;99.90
4002;DHT22;2015;48.670;9.060;2023-08-08T00:53:06;12.00;99.90
4002;DHT22;2015;48.670;9.060;2023-08-08T00:55:38;12.00;99.90
4002;DHT22;2015;48.670;9.060;2023-08-08T00:58:10;12.00;99.90
4002;DHT22;2015;48.670;9.060;2023-08-08T01:00:42;12.00;99.90
4002;DHT22;2015;48.670;9.060;2023-08-08T01:03:14;12.00;99.90
4002;DHT22;2015;48.670;9.060;2023-08-08T01:05:57;12.00;99.90
4002;DHT22;2015;48.670;9.060;2023-08-08T01:08:38;11.90;99.90
4002;DHT22;2015;48.670;9.060;2023-08-08T01:11:11;11.90;99.90
4002;DHT22;2015;48.670;9.060;2023-08-08T01:13:45;11.90;99.90
4002;DHT22;2015;48.670;9.060;2023-08-08T01:16:19;11.90;99.90
4002;DHT22;2015;48.670;9.060;2023-08-08T01:18:52;11.90;99.90
4002;DHT22;2015;48.670;9.060;2023-08-08T01:21:27;11.90;99.90
4002;DHT22;2015;48.670;9.060;2023-08-08T01:24:22;11.90;99.90
4002;DHT22;2015;48.670;9.060;2023-08-08T01:26:56;11.90;99.90
4002;DHT22;2015;48.670;9.060;2023-08-08T01:29:28;11.90;99.90
4002;DHT22;2015;48.670;9.060;2023-08-08T01:31:59;11.90;99.90
4002;DHT22;2015;48.670;9.060;2023-08-08T01:34:32;11.90;99.90
4002;DHT22;2015;48.670;9.060;2023-08-08T01:37:16;11.90;99.90
4002;DHT22;2015;48.670;9.060;2023-08-08T01:39:50;11.80;99.90
4002;DHT22;2015;48.670;9.060;2023-08-08T01:42:24;11.80;99.90
4002;DHT22;2015;48.670;9.060;2023-08-08T01:44:56;11.80;99.90
4002;DHT22;2015;48.670;9.060;2023-08-08T01:47:29;11.80;99.90
4002;DHT22;2015;48.670;9.060;2023-08-08T01:50:01;11.70;99.90
4002;DHT22;2015;48.670;9.060;2023-08-08T01:52:33;11.70;99.90
4002;DHT22;2015;48.670;9.060;2023-08-08T01:55:05;11.70;99.90
4002;DHT22;2015;48.670;9.060;2023-08-08T01:57:37;11.70;99.90
4002;DHT22;2015;48.670;9.060;2023-08-08T02:00:09;11.70;99.90
4002;DHT22;2015;48.670;9.060;2023-08-08T02:02:42;11.70;99.90
4002;DHT22;2015;48.670;9.060;2023-08-08T02:05:14;11.70;99.90
4002;DHT22;2015;48.670;9.060;2023-08-08T02:07:46;11.60;99.90
4002;DHT22;2015;48.670;9.060;2023-08-08T02:10:18;11.60;99.90
4002;DHT22;2015;48.670;9.060;2023-08-08T02:12:49;11.60;99.90
4002;DHT22;2015;48.670;9.060;2023-08-08T02:15:21;11.60;99.90
4002;DHT22;2015;48.670;9.060;2023-08-08T02:17:53;11.60;99.90
4002;DHT22;2015;48.670;9.060;2023-08-08T02:20:24;11.50;99.90
4002;DHT22;2015;48.670;9.060;2023-08-08T02:22:56;11.50;99.90
4002;DHT22;2015;48.670;9.060;2023-08-08T02:25:28;11.50;99.90
4002;DHT22;2015;48.670;9.060;2023-08-08T02:27:59;11.50;99.90
4002;DHT22;2015;48.670;9.060;2023-08-08T02:30:31;11.50;99.90
4002;DHT22;2015;48.670;9.060;2023-08-08T02:33:03;11.50;99.90
4002;DHT22;2015;48.670;9.060;2023-08-08T02:35:36;11.50;99.90
4002;DHT22;2015;48.670;9.060;2023-08-08T02:38:08;11.40;99.90
4002;DHT22;2015;48.670;9.060;2023-08-08T02:40:40;11.50;99.90
4002;DHT22;2015;48.670;9.060;2023-08-08T02:43:12;11.50;99.90
4002;DHT22;2015;48.670;9.060;2023-08-08T02:45:44;11.40;99.90
4002;DHT22;2015;48.670;9.060;2023-08-08T02:48:15;11.40;99.90
4002;DHT22;2015;48.670;9.060;2023-08-08T02:50:47;11.40;99.90
4002;DHT22;2015;48.670;9.060;2023-08-08T02:53:19;11.40;99.90
4002;DHT22;2015;48.670;9.060;2023-08-08T02:55:50;11.40;99.90
4002;DHT22;2015;48.670;9.060;2023-08-08T02:58:22;11.40;99.90
4002;DHT22;2015;48.670;9.060;2023-08-08T03:00:54;11.30;99.90
4002;DHT22;2015;48.670;9.060;2023-08-08T03:03:26;11.30;99.90
4002;DHT22;2015;48.670;9.060;2023-08-08T03:05:57;11.30;99.90
4002;DHT22;2015;48.670;9.060;2023-08-08T03:08:29;11.30;99.90
4002;DHT22;2015;48.670;9.060;2023-08-08T03:11:01;11.20;99.90
4002;DHT22;2015;48.670;9.060;2023-08-08T03:13:32;11.20;99.90
4002;DHT22;2015;48.670;9.060;2023-08-08T03:16:04;11.10;99.90
4002;DHT22;2015;48.670;9.060;2023-08-08T03:18:36;11.10;99.90
4002;DHT22;2015;48.670;9.060;2023-08-08T03:21:08;11.10;99.90
4002;DHT22;2015;48.670;9.060;2023-08-08T03:23:39;11.10;99.90
4002;DHT22;2015;48.670;9.060;2023-08-08T03:26:11;11.00;99.90
4002;DHT22;2015;48.670;9.060;2023-08-08T03:28:43;11.10;99.90
4002;DHT22;2015;48.670;9.060;2023-08-08T03:31:14;11.10;99.90
4002;DHT22;2015;48.670;9.060;2023-08-08T03:33:46;11.10;99.90
4002;DHT22;2015;48.670;9.060;2023-08-08T03:36:19;11.10;99.90
4002;DHT22;2015;48.670;9.060;2023-08-08T03:38:51;11.20;99.90
4002;DHT22;2015;48.670;9.060;2023-08-08T03:41:23;11.20;99.90
4002;DHT22;2015;48.670;9.060;2023-08-08T03:43:55;11.30;99.90
4002;DHT22;2015;48.670;9.060;2023-08-08T03:46:28;11.30;99.90
4002;DHT22;2015;48.670;9.060;2023-08-08T03:49:00;11.40;99.90
4002;DHT22;2015;48.670;9.060;2023-08-08T03:51:32;11.40;99.90
4002;DHT22;2015;48.670;9.060;2023-08-08T03:54:04;11.50;99.90
4002;DHT22;2015;48.670;9.060;2023-08-08T03:56:35;11.50;99.90
4002;DHT22;2015;48.670;9.060;2023-08-08T03:59:07;11.50;99.90
4002;DHT22;2015;48.670;9.060;2023-08-08T04:01:39;11.60;99.90
4002;DHT22;2015;48.670;9.060;2023-08-08T04:04:10;11.60;99.90
4002;DHT22;2015;48.670;9.060;2023-08-08T04:06:42;11.60;99.90
4002;DHT22;2015;48.670;9.060;2023-08-08T04:09:14;11.70;99.90
4002;DHT22;2015;48.670;9.060;2023-08-08T04:11:45;11.70;99.90
4002;DHT22;2015;48.670;9.060;2023-08-08T04:14:20;11.70;99.90
4002;DHT22;2015;48.670;9.060;2023-08-08T04:16:52;11.70;99.90
4002;DHT22;2015;48.670;9.060;2023-08-08T04:19:23;11.70;99.90
4002;DHT22;2015;48.670;9.060;2023-08-08T04:21:55;11.70;99.90
4002;DHT22;2015;48.670;9.060;2023-08-08T04:24:27;11.60;99.90
4002;DHT22;2015;48.670;9.060;2023-08-08T04:26:59;11.60;99.90
4002;DHT22;2015;48.670;9.060;2023-08-08T04:29:31;11.50;99.90
4002;DHT22;2015;48.670;9.060;2023-08-08T04:32:03;11.50;99.90
4002;DHT22;2015;48.670;9.060;2023-08-08T04:34:34;11.40;99.90
4002;DHT22;2015;48.670;9.060;2023-08-08T04:37:06;11.40;99.90
4002;DHT22;2015;48.670;9.060;2023-08-08T04:39:38;11.30;99.90
4002;DHT22;2015;48.670;9.060;2023-08-08T04:42:09;11.30;99.90
4002;DHT22;2015;48.670;9.060;2023-08-08T04:44:41;11.30;99.90
4002;DHT22;2015;48.670;9.060;2023-08-08T04:47:13;11.30;99.90
4002;DHT22;2015;48.670;9.060;2023-08-08T04:49:44;11.30;99.90
4002;DHT22;2015;48.670;9.060;2023-08-08T04:52:16;11.30;99.90
4002;DHT22;2015;48.670;9.060;2023-08-08T04:54:48;11.40;99.90
4002;DHT22;2015;48.670;9.060;2023-08-08T04:57:19;11.40;99.90
4002;DHT22;2015;48.670;9.060;2023-08-08T04:59:51;11.40;99.90
4002;DHT22;2015;48.670;9.060;2023-08-08T05:02:23;11.50;99.90
4002;DHT22;2015;48.670;9.060;2023-08-08T05:04:55;11.50;99.90
4002;DHT22;2015;48.670;9.060;2023-08-08T05:07:27;11.60;99.90
4002;DHT22;2015;48.670;9.060;2023-08-08T05:09:59;11.60;99.90
4002;DHT22;2015;48.670;9.060;2023-08-08T05:12:30;11.70;99.90
4002;DHT22;2015;48.670;9.060;2023-08-08T05:15:02;11.70;99.90
4002;DHT22;2015;48.670;9.060;2023-08-08T05:17:34;11.70;99.90
4002;DHT22;2015;48.670;9.060;2023-08-08T05:20:07;11.80;99.90
4002;DHT22;2015;48.670;9.060;2023-08-08T05:22:39;11.80;99.90
4002;DHT22;2015;48.670;9.060;2023-08-08T05:25:11;11.80;99.90
4002;DHT22;2015;48.670;9.060;2023-08-08T05:27:43;11.70;99.90
4002;DHT22;2015;48.670;9.060;2023-08-08T05:30:14;11.70;99.90
4002;DHT22;2015;48.670;9.060;2023-08-08T05:32:46;11.80;99.90
4002;DHT22;2015;48.670;9.060;2023-08-08T05:35:18;11.80;99.90
4002;DHT22;2015;48.670;9.060;2023-08-08T05:37:49;11.80;99.90
4002;DHT22;2015;48.670;9.060;2023-08-08T05:40:21;11.90;99.90
4002;DHT22;2015;48.670;9.060;2023-08-08T05:42:53;12.00;99.90
4002;DHT22;2015;48.670;9.060;2023-08-08T05:45:25;12.00;99.90
4002;DHT22;2015;48.670;9.060;2023-08-08T05:47:56;12.10;99.90
4002;DHT22;2015;48.670;9.060;2023-08-08T05:50:28;12.20;99.90
4002;DHT22;2015;48.670;9.060;2023-08-08T05:53:00;12.20;99.90
4002;DHT22;2015;48.670;9.060;2023-08-08T05:55:32;12.30;99.90
4002;DHT22;2015;48.670;9.060;2023-08-08T05:58:04;12.30;99.90
4002;DHT22;2015;48.670;9.060;2023-08-08T06:00:35;12.40;99.90
4002;DHT22;2015;48.670;9.060;2023-08-08T06:03:07;12.50;99.90
4002;DHT22;2015;48.670;9.060;2023-08-08T06:05:39;12.60;99.90
4002;DHT22;2015;48.670;9.060;2023-08-08T06:08:11;12.80;99.90
4002;DHT22;2015;48.670;9.060;2023-08-08T06:10:44;13.00;99.90
4002;DHT22;2015;48.670;9.060;2023-08-08T06:13:16;13.20;99.90
4002;DHT22;2015;48.670;9.060;2023-08-08T06:15:48;13.40;99.90
4002;DHT22;2015;48.670;9.060;2023-08-08T06:18:19;13.50;99.90
4002;DHT22;2015;48.670;9.060;2023-08-08T06:20:51;13.60;99.90
4002;DHT22;2015;48.670;9.060;2023-08-08T06:23:23;13.80;99.90
4002;DHT22;2015;48.670;9.060;2023-08-08T06:25:54;13.90;99.90
4002;DHT22;2015;48.670;9.060;2023-08-08T06:28:26;14.00;99.90
4002;DHT22;2015;48.670;9.060;2023-08-08T06:30:58;14.10;99.90
4002;DHT22;2015;48.670;9.060;2023-08-08T06:33:30;14.20;99.90
4002;DHT22;2015;48.670;9.060;2023-08-08T06:36:02;14.30;99.90
4002;DHT22;2015;48.670;9.060;2023-08-08T06:38:34;14.40;99.90
4002;DHT22;2015;48.670;9.060;2023-08-08T06:41:06;14.60;99.90
4002;DHT22;2015;48.670;9.060;2023-08-08T06:43:39;14.70;99.90
4002;DHT22;2015;48.670;9.060;2023-08-08T06:46:11;14.90;99.90
4002;DHT22;2015;48.670;9.060;2023-08-08T06:48:42;14.90;99.90
4002;DHT22;2015;48.670;9.060;2023-08-08T06:51:16;15.00;99.90
4002;DHT22;2015;48.670;9.060;2023-08-08T06:53:48;15.00;99.90
4002;DHT22;2015;48.670;9.060;2023-08-08T06:56:19;15.10;99.90
4002;DHT22;2015;48.670;9.060;2023-08-08T06:58:52;15.20;99.90
4002;DHT22;2015;48.670;9.060;2023-08-08T07:01:23;15.30;99.90
4002;DHT22;2015;48.670;9.060;2023-08-08T07:03:55;15.50;99.90
4002;DHT22;2015;48.670;9.060;2023-08-08T07:06:27;15.60;99.90
4002;DHT22;2015;48.670;9.060;2023-08-08T07:08:59;15.70;99.90
4002;DHT22;2015;48.670;9.060;2023-08-08T07:11:30;15.80;99.90
4002;DHT22;2015;48.670;9.060;2023-08-08T07:14:02;16.00;99.90
4002;DHT22;2015;48.670;9.060;2023-08-08T07:16:34;16.10;99.90
4002;DHT22;2015;48.670;9.060;2023-08-08T07:19:06;16.10;99.90
4002;DHT22;2015;48.670;9.060;2023-08-08T07:21:38;16.20;99.90
4002;DHT22;2015;48.670;9.060;2023-08-08T07:24:09;16.30;99.90
4002;DHT22;2015;48.670;9.060;2023-08-08T07:26:41;16.30;99.90
4002;DHT22;2015;48.670;9.060;2023-08-08T07:29:13;16.30;99.90
4002;DHT22;2015;48.670;9.060;2023-08-08T07:31:45;16.30;99.90
4002;DHT22;2015;48.670;9.060;2023-08-08T07:34:17;16.40;99.90
4002;DHT22;2015;48.670;9.060;2023-08-08T07:36:48;16.50;99.90
4002;DHT22;2015;48.670;9.060;2023-08-08T07:39:20;16.60;99.90
4002;DHT22;2015;48.670;9.060;2023-08-08T07:41:52;16.60;99.90
4002;DHT22;2015;48.670;9.060;2023-08-08T07:44:24;16.70;99.90
4002;DHT22;2015;48.670;9.060;2023-08-08T07:46:56;16.70;99.90
4002;DHT22;2015;48.670;9.060;2023-08-08T07:49:28;16.70;99.90
4002;DHT22;2015;48.670;9.060;2023-08-08T07:52:00;16.80;99.90
4002;DHT22;2015;48.670;9.060;2023-08-08T07:54:32;17.00;99.90
4002;DHT22;2015;48.670;9.060;2023-08-08T07:57:04;17.20;99.90
4002;DHT22;2015;48.670;9.060;2023-08-08T07:59:36;17.40;99.90
4002;DHT22;2015;48.670;9.060;2023-08-08T08:02:07;17.50;99.90
4002;DHT22;2015;48.670;9.060;2023-08-08T08:04:39;17.70;99.90
4002;DHT22;2015;48.670;9.060;2023-08-08T08:07:11;17.70;99.90
4002;DHT22;2015;48.670;9.060;2023-08-08T08:09:42;17.80;99.90
4002;DHT22;2015;48.670;9.060;2023-08-08T08:12:14;17.80;99.90
4002;DHT22;2015;48.670;9.060;2023-08-08T08:14:46;17.90;99.90
4002;DHT22;2015;48.670;9.060;2023-08-08T08:17:18;17.90;99.90
4002;DHT22;2015;48.670;9.060;2023-08-08T08:19:50;18.00;99.90
4002;DHT22;2015;48.670;9.060;2023-08-08T08:22:22;18.10;99.90
4002;DHT22;2015;48.670;9.060;2023-08-08T08:24:54;18.10;99.90
4002;DHT22;2015;48.670;9.060;2023-08-08T08:27:26;18.30;99.90
4002;DHT22;2015;48.670;9.060;2023-08-08T08:29:58;18.30;99.90
4002;DHT22;2015;48.670;9.060;2023-08-08T08:32:33;18.40;99.90
4002;DHT22;2015;48.670;9.060;2023-08-08T08:35:05;18.70;99.90
4002;DHT22;2015;48.670;9.060;2023-08-08T08:37:38;18.70;99.90
4002;DHT22;2015;48.670;9.060;2023-08-08T08:40:10;18.60;99.90
4002;DHT22;2015;48.670;9.060;2023-08-08T08:42:43;18.60;99.90
4002;DHT22;2015;48.670;9.060;2023-08-08T08:45:17;18.60;99.90
4002;DHT22;2015;48.670;9.060;2023-08-08T08:47:56;18.50;99.90
4002;DHT22;2015;48.670;9.060;2023-08-08T08:50:32;18.50;99.90
4002;DHT22;2015;48.670;9.060;2023-08-08T08:53:05;18.60;99.90
4002;DHT22;2015;48.670;9.060;2023-08-08T08:55:37;18.60;99.90
4002;DHT22;2015;48.670;9.060;2023-08-08T08:58:09;18.50;99.90
4002;DHT22;2015;48.670;9.060;2023-08-08T09:00:44;18.70;99.90
4002;DHT22;2015;48.670;9.060;2023-08-08T09:03:17;18.90;99.90
4002;DHT22;2015;48.670;9.060;2023-08-08T09:05:49;18.90;99.90
4002;DHT22;2015;48.670;9.060;2023-08-08T09:08:22;19.40;99.90
4002;DHT22;2015;48.670;9.060;2023-08-08T09:10:54;19.40;99.90
4002;DHT22;2015;48.670;9.060;2023-08-08T09:13:36;19.20;99.90
4002;DHT22;2015;48.670;9.060;2023-08-08T09:16:09;19.30;99.90
4002;DHT22;2015;48.670;9.060;2023-08-08T09:18:41;19.60;99.90
4002;DHT22;2015;48.670;9.060;2023-08-08T09:21:14;20.30;99.90
4002;DHT22;2015;48.670;9.060;2023-08-08T09:23:47;20.80;99.90
4002;DHT22;2015;48.670;9.060;2023-08-08T09:26:19;20.80;99.90
4002;DHT22;2015;48.670;9.060;2023-08-08T09:28:51;21.10;99.90
4002;DHT22;2015;48.670;9.060;2023-08-08T09:31:25;21.70;99.90
4002;DHT22;2015;48.670;9.060;2023-08-08T09:34:01;21.90;99.90
4002;DHT22;2015;48.670;9.060;2023-08-08T09:36:33;21.60;99.90
4002;DHT22;2015;48.670;9.060;2023-08-08T09:39:06;21.60;99.90
4002;DHT22;2015;48.670;9.060;2023-08-08T09:41:39;22.30;99.90
4002;DHT22;2015;48.670;9.060;2023-08-08T09:44:11;22.20;99.90
4002;DHT22;2015;48.670;9.060;2023-08-08T09:46:42;22.60;99.90
4002;DHT22;2015;48.670;9.060;2023-08-08T09:49:14;22.80;99.90
4002;DHT22;2015;48.670;9.060;2023-08-08T09:51:48;23.10;99.90
4002;DHT22;2015;48.670;9.060;2023-08-08T09:54:20;23.70;99.90
4002;DHT22;2015;48.670;9.060;2023-08-08T09:56:52;24.40;99.90
4002;DHT22;2015;48.670;9.060;2023-08-08T09:59:24;25.00;99.90
4002;DHT22;2015;48.670;9.060;2023-08-08T10:01:57;25.00;99.90
4002;DHT22;2015;48.670;9.060;2023-08-08T10:04:29;24.10;99.90
4002;DHT22;2015;48.670;9.060;2023-08-08T10:07:01;23.80;99.90
4002;DHT22;2015;48.670;9.060;2023-08-08T10:09:33;23.50;99.90
4002;DHT22;2015;48.670;9.060;2023-08-08T10:12:06;22.70;99.90
4002;DHT22;2015;48.670;9.060;2023-08-08T10:14:41;22.20;99.90
4002;DHT22;2015;48.670;9.060;2023-08-08T10:17:15;21.80;99.90
4002;DHT22;2015;48.670;9.060;2023-08-08T10:20:05;21.70;99.90
4002;DHT22;2015;48.670;9.060;2023-08-08T10:22:44;22.30;99.90
4002;DHT22;2015;48.670;9.060;2023-08-08T10:25:19;23.40;99.90
4002;DHT22;2015;48.670;9.060;2023-08-08T10:28:20;23.90;99.90
4002;DHT22;2015;48.670;9.060;2023-08-08T10:30:59;23.60;99.90
4002;DHT22;2015;48.670;9.060;2023-08-08T10:33:43;22.90;99.90
4002;DHT22;2015;48.670;9.060;2023-08-08T10:36:15;22.60;99.90
4002;DHT22;2015;48.670;9.060;2023-08-08T10:38:48;22.90;99.90
4002;DHT22;2015;48.670;9.060;2023-08-08T10:41:22;23.80;99.90
4002;DHT22;2015;48.670;9.060;2023-08-08T10:43:58;24.70;97.90
4002;DHT22;2015;48.670;9.060;2023-08-08T10:46:31;24.60;96.90
4002;DHT22;2015;48.670;9.060;2023-08-08T10:49:05;24.00;99.10
4002;DHT22;2015;48.670;9.060;2023-08-08T10:51:38;23.70;98.90
4002;DHT22;2015;48.670;9.060;2023-08-08T10:54:14;23.30;99.90
4002;DHT22;2015;48.670;9.060;2023-08-08T10:56:54;23.10;99.90
4002;DHT22;2015;48.670;9.060;2023-08-08T10:59:36;23.90;99.90
4002;DHT22;2015;48.670;9.060;2023-08-08T11:02:09;24.20;98.60
4002;DHT22;2015;48.670;9.060;2023-08-08T11:04:42;23.30;98.90
4002;DHT22;2015;48.670;9.060;2023-08-08T11:07:14;23.40;99.00
4002;DHT22;2015;48.670;9.060;2023-08-08T11:09:47;24.70;96.80
4002;DHT22;2015;48.670;9.060;2023-08-08T11:12:20;26.40;94.10
4002;DHT22;2015;48.670;9.060;2023-08-08T11:14:51;27.60;92.40
4002;DHT22;2015;48.670;9.060;2023-08-08T11:17:23;28.30;91.00
4002;DHT22;2015;48.670;9.060;2023-08-08T11:19:55;29.00;85.10
4002;DHT22;2015;48.670;9.060;2023-08-08T11:22:28;28.40;86.70
4002;DHT22;2015;48.670;9.060;2023-08-08T11:25:00;28.00;88.00
4002;DHT22;2015;48.670;9.060;2023-08-08T11:27:35;27.80;88.80
4002;DHT22;2015;48.670;9.060;2023-08-08T11:30:09;28.00;85.40
4002;DHT22;2015;48.670;9.060;2023-08-08T11:32:41;27.40;85.10
4002;DHT22;2015;48.670;9.060;2023-08-08T11:35:18;25.70;89.20
4002;DHT22;2015;48.670;9.060;2023-08-08T11:37:51;25.00;92.00
4002;DHT22;2015;48.670;9.060;2023-08-08T11:40:26;24.70;93.50
4002;DHT22;2015;48.670;9.060;2023-08-08T11:42:59;24.20;92.90
4002;DHT22;2015;48.670;9.060;2023-08-08T11:45:31;24.10;93.90
4002;DHT22;2015;48.670;9.060;2023-08-08T11:48:03;23.70;92.40
4002;DHT22;2015;48.670;9.060;2023-08-08T11:50:37;23.60;92.50
4002;DHT22;2015;48.670;9.060;2023-08-08T11:53:09;23.50;93.30
4002;DHT22;2015;48.670;9.060;2023-08-08T11:55:42;23.40;93.90
4002;DHT22;2015;48.670;9.060;2023-08-08T11:58:14;23.50;92.20
4002;DHT22;2015;48.670;9.060;2023-08-08T12:00:46;23.40;93.20
4002;DHT22;2015;48.670;9.060;2023-08-08T12:03:19;23.20;92.60
4002;DHT22;2015;48.670;9.060;2023-08-08T12:05:51;23.00;94.90
4002;DHT22;2015;48.670;9.060;2023-08-08T12:08:23;22.90;93.90
4002;DHT22;2015;48.670;9.060;2023-08-08T12:10:55;22.70;94.20
4002;DHT22;2015;48.670;9.060;2023-08-08T12:13:28;22.80;93.90
4002;DHT22;2015;48.670;9.060;2023-08-08T12:16:00;22.70;95.50
4002;DHT22;2015;48.670;9.060;2023-08-08T12:18:32;22.50;96.10
4002;DHT22;2015;48.670;9.060;2023-08-08T12:21:05;22.40;95.60
4002;DHT22;2015;48.670;9.060;2023-08-08T12:23:37;22.00;95.40
4002;DHT22;2015;48.670;9.060;2023-08-08T12:26:09;21.80;96.00
4002;DHT22;2015;48.670;9.060;2023-08-08T12:28:41;21.90;96.10
4002;DHT22;2015;48.670;9.060;2023-08-08T12:31:13;22.20;96.80
4002;DHT22;2015;48.670;9.060;2023-08-08T12:33:44;22.50;96.10
4002;DHT22;2015;48.670;9.060;2023-08-08T12:36:17;22.80;95.40
4002;DHT22;2015;48.670;9.060;2023-08-08T12:38:48;22.80;95.50
4002;DHT22;2015;48.670;9.060;2023-08-08T12:41:20;22.70;95.70
4002;DHT22;2015;48.670;9.060;2023-08-08T12:43:52;22.60;96.00
4002;DHT22;2015;48.670;9.060;2023-08-08T12:46:24;22.30;96.20
4002;DHT22;2015;48.670;9.060;2023-08-08T12:48:56;22.40;96.10
4002;DHT22;2015;48.670;9.060;2023-08-08T12:51:27;22.40;97.00
4002;DHT22;2015;48.670;9.060;2023-08-08T12:53:59;22.50;96.40
4002;DHT22;2015;48.670;9.060;2023-08-08T12:56:31;22.50;96.70
4002;DHT22;2015;48.670;9.060;2023-08-08T12:59:02;22.40;96.00
4002;DHT22;2015;48.670;9.060;2023-08-08T13:01:34;22.40;96.30
4002;DHT22;2015;48.670;9.060;2023-08-08T13:04:06;21.90;96.50
4002;DHT22;2015;48.670;9.060;2023-08-08T13:06:41;21.50;97.10
4002;DHT22;2015;48.670;9.060;2023-08-08T13:09:12;21.20;98.90
4002;DHT22;2015;48.670;9.060;2023-08-08T13:11:44;21.10;98.80
4002;DHT22;2015;48.670;9.060;2023-08-08T13:14:16;21.00;98.90
4002;DHT22;2015;48.670;9.060;2023-08-08T13:16:48;20.90;99.40
4002;DHT22;2015;48.670;9.060;2023-08-08T13:19:20;21.00;99.90
4002;DHT22;2015;48.670;9.060;2023-08-08T13:21:56;21.10;99.30
4002;DHT22;2015;48.670;9.060;2023-08-08T13:24:27;21.30;99.70
4002;DHT22;2015;48.670;9.060;2023-08-08T13:27:00;21.30;99.70
4002;DHT22;2015;48.670;9.060;2023-08-08T13:29:32;21.30;99.90
4002;DHT22;2015;48.670;9.060;2023-08-08T13:32:04;21.10;99.90
4002;DHT22;2015;48.670;9.060;2023-08-08T13:34:36;21.10;99.90
4002;DHT22;2015;48.670;9.060;2023-08-08T13:37:07;21.10;99.90
4002;DHT22;2015;48.670;9.060;2023-08-08T13:39:39;21.00;99.90
4002;DHT22;2015;48.670;9.060;2023-08-08T13:42:11;20.90;99.90
4002;DHT22;2015;48.670;9.060;2023-08-08T13:44:42;20.80;99.90
4002;DHT22;2015;48.670;9.060;2023-08-08T13:47:14;20.80;99.90
4002;DHT22;2015;48.670;9.060;2023-08-08T13:49:46;21.00;99.90
4002;DHT22;2015;48.670;9.060;2023-08-08T13:52:18;21.00;99.90
4002;DHT22;2015;48.670;9.060;2023-08-08T13:54:49;21.00;99.90
4002;DHT22;2015;48.670;9.060;2023-08-08T13:57:21;21.00;99.90
4002;DHT22;2015;48.670;9.060;2023-08-08T13:59:53;21.00;99.90
4002;DHT22;2015;48.670;9.060;2023-08-08T14:02:24;21.00;99.90
4002;DHT22;2015;48.670;9.060;2023-08-08T14:04:56;21.10;99.90
4002;DHT22;2015;48.670;9.060;2023-08-08T14:07:28;21.20;99.90
4002;DHT22;2015;48.670;9.060;2023-08-08T14:10:01;21.00;99.90
4002;DHT22;2015;48.670;9.060;2023-08-08T14:12:33;21.00;99.90
4002;DHT22;2015;48.670;9.060;2023-08-08T14:15:06;20.90;99.90
4002;DHT22;2015;48.670;9.060;2023-08-08T14:17:38;20.80;99.90
4002;DHT22;2015;48.670;9.060;2023-08-08T14:20:10;20.80;99.90
4002;DHT22;2015;48.670;9.060;2023-08-08T14:22:45;20.70;99.90
4002;DHT22;2015;48.670;9.060;2023-08-08T14:25:21;20.70;99.90
4002;DHT22;2015;48.670;9.060;2023-08-08T14:27:53;20.70;99.90
4002;DHT22;2015;48.670;9.060;2023-08-08T14:30:25;20.70;99.90
4002;DHT22;2015;48.670;9.060;2023-08-08T14:32:58;20.70;99.90
4002;DHT22;2015;48.670;9.060;2023-08-08T14:35:30;20.80;99.90
4002;DHT22;2015;48.670;9.060;2023-08-08T14:38:02;20.90;99.90
4002;DHT22;2015;48.670;9.060;2023-08-08T14:40:34;21.00;99.90
4002;DHT22;2015;48.670;9.060;2023-08-08T14:43:08;21.00;99.90
4002;DHT22;2015;48.670;9.060;2023-08-08T14:45:43;21.10;99.90
4002;DHT22;2015;48.670;9.060;2023-08-08T14:48:15;21.10;99.90
4002;DHT22;2015;48.670;9.060;2023-08-08T14:50:46;21.00;99.90
4002;DHT22;2015;48.670;9.060;2023-08-08T14:53:18;21.20;99.90
4002;DHT22;2015;48.670;9.060;2023-08-08T14:55:50;21.20;99.90
4002;DHT22;2015;48.670;9.060;2023-08-08T14:58:21;21.10;99.90
4002;DHT22;2015;48.670;9.060;2023-08-08T15:00:55;21.10;99.90
4002;DHT22;2015;48.670;9.060;2023-08-08T15:03:27;20.90;99.90
4002;DHT22;2015;48.670;9.060;2023-08-08T15:05:59;20.70;99.90
4002;DHT22;2015;48.670;9.060;2023-08-08T15:08:31;20.60;99.90
4002;DHT22;2015;48.670;9.060;2023-08-08T15:11:03;20.60;99.90
4002;DHT22;2015;48.670;9.060;2023-08-08T15:13:34;20.70;99.90
4002;DHT22;2015;48.670;9.060;2023-08-08T15:16:06;20.80;99.90
4002;DHT22;2015;48.670;9.060;2023-08-08T15:18:38;20.80;99.90
4002;DHT22;2015;48.670;9.060;2023-08-08T15:21:10;20.80;99.90
4002;DHT22;2015;48.670;9.060;2023-08-08T15:23:41;20.80;99.90
4002;DHT22;2015;48.670;9.060;2023-08-08T15:26:15;20.80;99.90
4002;DHT22;2015;48.670;9.060;2023-08-08T15:28:52;20.80;99.90
4002;DHT22;2015;48.670;9.060;2023-08-08T15:31:23;20.70;99.90
4002;DHT22;2015;48.670;9.060;2023-08-08T15:33:55;20.50;99.90
4002;DHT22;2015;48.670;9.060;2023-08-08T15:36:27;20.50;99.90
4002;DHT22;2015;48.670;9.060;2023-08-08T15:38:58;20.40;99.90
4002;DHT22;2015;48.670;9.060;2023-08-08T15:41:30;20.50;99.90
4002;DHT22;2015;48.670;9.060;2023-08-08T15:44:02;20.50;99.90
4002;DHT22;2015;48.670;9.060;2023-08-08T15:46:34;20.40;99.90
4002;DHT22;2015;48.670;9.060;2023-08-08T15:49:06;20.30;99.90
4002;DHT22;2015;48.670;9.060;2023-08-08T15:51:40;20.30;99.90
4002;DHT22;2015;48.670;9.060;2023-08-08T15:54:12;20.20;99.90
4002;DHT22;2015;48.670;9.060;2023-08-08T15:56:44;20.10;99.90
4002;DHT22;2015;48.670;9.060;2023-08-08T15:59:16;20.00;99.90
4002;DHT22;2015;48.670;9.060;2023-08-08T16:01:47;19.90;99.90
4002;DHT22;2015;48.670;9.060;2023-08-08T16:04:19;19.90;99.90
4002;DHT22;2015;48.670;9.060;2023-08-08T16:06:51;19.90;99.90
4002;DHT22;2015;48.670;9.060;2023-08-08T16:09:22;19.90;99.90
4002;DHT22;2015;48.670;9.060;2023-08-08T16:11:54;19.80;99.90
4002;DHT22;2015;48.670;9.060;2023-08-08T16:14:26;19.90;99.90
4002;DHT22;2015;48.670;9.060;2023-08-08T16:16:58;20.00;99.90
4002;DHT22;2015;48.670;9.060;2023-08-08T16:19:31;20.20;99.90
4002;DHT22;2015;48.670;9.060;2023-08-08T16:22:03;20.20;99.90
4002;DHT22;2015;48.670;9.060;2023-08-08T16:24:36;20.10;99.90
4002;DHT22;2015;48.670;9.060;2023-08-08T16:27:07;20.00;99.90
4002;DHT22;2015;48.670;9.060;2023-08-08T16:29:39;19.90;99.90
4002;DHT22;2015;48.670;9.060;2023-08-08T16:32:11;19.80;99.90
4002;DHT22;2015;48.670;9.060;2023-08-08T16:34:43;19.70;99.90
4002;DHT22;2015;48.670;9.060;2023-08-08T16:37:17;19.60;99.90